sensor_id;sensor_type;location;lat;lon;timestamp;P1;durP1;ratioP1;P2;durP2;ratioP2
72479;SDS011;60503;43.540;-5.510;2022-12-07T07:17:38;6.75;;;3.70;;
72479;SDS011;60503;43.540;-5.510;2022-12-07T07:20:04;7.78;;;3.92;;
72479;SDS011;60503;43.540;-5.510;2022-12-07T07:22:30;6.93;;;3.88;;
72479;SDS011;60503;43.540;-5.510;2022-12-07T07:24:56;9.38;;;4.07;;
72479;SDS011;60503;43.540;-5.510;2022-12-07T07:27:22;6.95;;;3.90;;
72479;SDS011;60503;43.540;-5.510;2022-12-07T07:29:47;7.53;;;4.35;;
72479;SDS011;60503;43.540;-5.510;2022-12-07T07:32:13;9.15;;;4.20;;
72479;SDS011;60503;43.540;-5.510;2022-12-07T07:34:39;7.60;;;3.90;;
72479;SDS011;60503;43.540;-5.510;2022-12-07T07:37:05;6.65;;;4.50;;
72479;SDS011;60503;43.540;-5.510;2022-12-07T07:39:30;5.97;;;4.35;;
72479;SDS011;60503;43.540;-5.510;2022-12-07T07:41:56;6.35;;;4.22;;
72479;SDS011;60503;43.540;-5.510;2022-12-07T07:44:22;9.38;;;4.30;;
72479;SDS011;60503;43.540;-5.510;2022-12-07T07:46:47;6.78;;;4.32;;
72479;SDS011;60503;43.540;-5.510;2022-12-07T07:49:13;5.75;;;3.65;;
72479;SDS011;60503;43.540;-5.510;2022-12-07T07:51:38;4.97;;;3.50;;
72479;SDS011;60503;43.540;-5.510;2022-12-07T07:54:04;9.07;;;4.55;;
72479;SDS011;60503;43.540;-5.510;2022-12-07T07:56:30;6.95;;;4.80;;
72479;SDS011;60503;43.540;-5.510;2022-12-07T07:58:56;5.65;;;4.15;;
72479;SDS011;60503;43.540;-5.510;2022-12-07T12:49:40;11.50;;;4.70;;
72479;SDS011;60503;43.540;-5.510;2022-12-07T12:55:11;12.27;;;5.22;;
72479;SDS011;60503;43.540;-5.510;2022-12-07T12:57:35;9.07;;;4.45;;
72479;SDS011;60503;43.540;-5.510;2022-12-07T13:00:14;13.80;;;4.95;;
72479;SDS011;60503;43.540;-5.510;2022-12-07T13:03:24;10.57;;;4.47;;
72479;SDS011;60503;43.540;-5.510;2022-12-07T13:09:15;12.75;;;4.82;;
72479;SDS011;60503;43.540;-5.510;2022-12-07T13:11:44;13.32;;;5.05;;
72479;SDS011;60503;43.540;-5.510;2022-12-07T13:22:42;20.02;;;5.85;;
72479;SDS011;60503;43.540;-5.510;2022-12-07T13:25:23;11.52;;;5.60;;
72479;SDS011;60503;43.540;-5.510;2022-12-07T13:28:15;17.25;;;5.88;;
72479;SDS011;60503;43.540;-5.510;2022-12-07T13:30:51;16.48;;;6.25;;
72479;SDS011;60503;43.540;-5.510;2022-12-07T13:33:38;15.65;;;6.10;;
72479;SDS011;60503;43.540;-5.510;2022-12-07T13:36:04;18.63;;;5.85;;
72479;SDS011;60503;43.540;-5.510;2022-12-07T13:38:37;16.88;;;5.63;;
72479;SDS011;60503;43.540;-5.510;2022-12-07T13:49:29;23.20;;;5.53;;
72479;SDS011;60503;43.540;-5.510;2022-12-07T13:52:08;15.05;;;6.43;;
72479;SDS011;60503;43.540;-5.510;2022-12-07T13:54:45;15.55;;;6.28;;
72479;SDS011;60503;43.540;-5.510;2022-12-07T13:57:24;19.73;;;6.28;;
72479;SDS011;60503;43.540;-5.510;2022-12-07T13:59:51;19.70;;;6.55;;
72479;SDS011;60503;43.540;-5.510;2022-12-07T14:02:27;22.25;;;6.07;;
72479;SDS011;60503;43.540;-5.510;2022-12-07T14:05:12;22.10;;;5.95;;
72479;SDS011;60503;43.540;-5.510;2022-12-07T14:10:32;17.90;;;6.57;;
72479;SDS011;60503;43.540;-5.510;2022-12-07T14:12:59;15.90;;;5.22;;
72479;SDS011;60503;43.540;-5.510;2022-12-07T14:15:28;16.10;;;5.55;;
72479;SDS011;60503;43.540;-5.510;2022-12-07T14:17:58;10.63;;;5.00;;
72479;SDS011;60503;43.540;-5.510;2022-12-07T14:22:54;9.20;;;5.03;;
72479;SDS011;60503;43.540;-5.510;2022-12-07T14:25:24;14.82;;;5.43;;
72479;SDS011;60503;43.540;-5.510;2022-12-07T14:27:56;14.98;;;5.35;;
72479;SDS011;60503;43.540;-5.510;2022-12-07T14:30:30;13.55;;;4.93;;
72479;SDS011;60503;43.540;-5.510;2022-12-07T14:33:01;11.98;;;5.10;;
72479;SDS011;60503;43.540;-5.510;2022-12-07T14:35:28;12.93;;;5.22;;
72479;SDS011;60503;43.540;-5.510;2022-12-07T14:37:56;10.48;;;5.10;;
72479;SDS011;60503;43.540;-5.510;2022-12-07T14:40:23;11.40;;;4.88;;
72479;SDS011;60503;43.540;-5.510;2022-12-07T14:42:51;12.00;;;4.75;;
72479;SDS011;60503;43.540;-5.510;2022-12-07T14:45:24;17.33;;;5.38;;
